Renner, South Dakota
Current Conditions -  °F | °C
As of 1:56 AM on Friday 31 Oct 2014 (Local Time) from KFSD Reporting Station
Clear Clear  
Wind Chill: 16°   Ceiling: Unl
Heat Index: 26°   Visibility: 10mi
Dew Point: 19°   Wind: 10mph
Humidity: 75%   Direction: 350°N
Pressure: 30.5"   Gusts: NA
Location:  43.65°N, 96.73°W
Report Text: KFSD 310656Z AUTO 35009KT 10SM CLR M03/M07 A3050 RMK AO2 SLP343 T10331072
Loading
Personal Weather Stations






























Interactive Weather Map
Tropical Storm Tracking
New forecast layout! Learn more

10-Day Weather Forecast

Advertisements
Track Severe Weather on mobile